createdAt,value
2018-04-30T00:00:39.851Z,7.97
2018-04-30T00:03:08.148Z,9.20
2018-04-30T00:05:36.347Z,7.65
2018-04-30T00:08:04.640Z,8.40
2018-04-30T00:10:33.029Z,7.50
2018-04-30T00:13:01.433Z,8.20
2018-04-30T00:15:29.959Z,8.50
2018-04-30T00:17:58.471Z,7.53
2018-04-30T00:20:26.635Z,7.45
2018-04-30T00:22:54.926Z,8.90
2018-04-30T00:25:23.021Z,8.40
2018-04-30T00:27:51.205Z,8.50
2018-04-30T00:30:19.627Z,8.23
2018-04-30T00:32:47.903Z,8.65
2018-04-30T00:35:15.904Z,7.75
2018-04-30T00:37:43.951Z,8.50
2018-04-30T00:40:12.187Z,8.48
2018-04-30T00:42:40.369Z,8.77
2018-04-30T00:45:08.566Z,9.05
2018-04-30T00:47:36.867Z,8.13
2018-04-30T00:50:05.162Z,8.23
2018-04-30T00:52:33.463Z,8.48
2018-04-30T00:55:01.858Z,8.73
2018-04-30T00:57:30.045Z,8.45
2018-04-30T00:59:58.249Z,7.95
2018-04-30T01:02:26.444Z,9.05
2018-04-30T01:04:54.712Z,8.70
2018-04-30T01:07:22.931Z,9.05
2018-04-30T01:09:51.123Z,9.40
2018-04-30T01:12:19.321Z,8.52
2018-04-30T01:14:47.728Z,8.77
2018-04-30T01:17:15.829Z,8.75
2018-04-30T01:19:43.996Z,8.13
2018-04-30T01:22:12.306Z,9.05
2018-04-30T01:24:40.497Z,9.13
2018-04-30T01:27:08.785Z,9.65
2018-04-30T01:29:36.990Z,8.15
2018-04-30T01:32:05.285Z,8.80
2018-04-30T01:34:33.491Z,9.15
2018-04-30T01:37:01.787Z,9.90
2018-04-30T01:39:30.085Z,9.35
2018-04-30T01:41:58.363Z,8.98
2018-04-30T01:44:26.707Z,9.23
2018-04-30T01:46:55.075Z,8.38
2018-04-30T01:49:23.376Z,9.15
2018-04-30T01:51:51.555Z,9.10
2018-04-30T01:54:20.130Z,9.13
2018-04-30T01:56:48.451Z,8.25
2018-04-30T01:59:16.505Z,9.98
2018-04-30T02:01:44.871Z,8.05
2018-04-30T02:04:13.363Z,8.75
2018-04-30T02:06:41.998Z,9.73
2018-04-30T02:09:10.590Z,9.98
2018-04-30T02:11:39.540Z,9.32
2018-04-30T02:14:07.876Z,8.50
2018-04-30T02:16:36.349Z,10.52
2018-04-30T02:19:04.579Z,9.00
2018-04-30T02:21:32.962Z,9.20
2018-04-30T02:24:01.151Z,9.25
2018-04-30T02:26:29.356Z,10.10
2018-04-30T02:28:57.767Z,10.77
2018-04-30T02:31:26.153Z,8.98
2018-04-30T02:33:54.466Z,10.15
2018-04-30T02:36:22.591Z,11.00
2018-04-30T02:38:50.829Z,9.77
2018-04-30T02:41:19.019Z,8.85
2018-04-30T02:43:47.343Z,10.25
2018-04-30T02:46:16.043Z,9.88
2018-04-30T02:48:44.560Z,10.00
2018-04-30T02:51:12.929Z,9.80
2018-04-30T02:53:41.121Z,10.50
2018-04-30T02:56:09.525Z,9.00
2018-04-30T02:58:38.145Z,9.07
2018-04-30T03:01:06.635Z,8.82
2018-04-30T03:03:34.907Z,9.13
2018-04-30T03:06:03.144Z,10.23
2018-04-30T03:08:31.512Z,9.82
2018-04-30T03:10:59.727Z,8.85
2018-04-30T03:13:28.205Z,9.23
2018-04-30T03:15:56.300Z,8.60
2018-04-30T03:18:24.484Z,8.85
2018-04-30T03:20:52.706Z,8.65
2018-04-30T03:23:21.104Z,8.82
2018-04-30T03:25:49.488Z,9.25
2018-04-30T03:28:17.808Z,9.18
2018-04-30T03:30:46.191Z,7.82
2018-04-30T03:33:14.489Z,8.38
2018-04-30T03:35:42.670Z,8.70
2018-04-30T03:38:10.988Z,8.30
2018-04-30T03:40:39.499Z,7.22
2018-04-30T03:43:07.874Z,7.93
2018-04-30T03:45:36.236Z,7.80
2018-04-30T03:48:04.579Z,8.30
2018-04-30T03:50:33.129Z,8.32
2018-04-30T03:53:01.441Z,8.25
2018-04-30T03:55:29.799Z,9.27
2018-04-30T03:57:58.443Z,9.07
2018-04-30T04:00:26.768Z,9.23
2018-04-30T04:02:54.969Z,9.70
2018-04-30T04:05:23.599Z,8.75
2018-04-30T04:07:52.620Z,11.07
2018-04-30T04:10:21.289Z,9.68
2018-04-30T04:12:49.396Z,9.40
2018-04-30T04:15:17.796Z,10.30
2018-04-30T04:17:47.211Z,11.75
2018-04-30T04:20:15.715Z,10.50
2018-04-30T04:22:44.094Z,9.48
2018-04-30T04:25:12.493Z,11.43
2018-04-30T04:27:40.703Z,9.60
2018-04-30T04:30:08.871Z,8.15
2018-04-30T04:32:37.312Z,10.20
2018-04-30T04:35:06.041Z,9.32
2018-04-30T04:37:34.386Z,8.90
2018-04-30T04:40:02.716Z,10.38
2018-04-30T04:42:31.078Z,8.20
2018-04-30T04:44:59.600Z,8.88
2018-04-30T04:47:27.944Z,9.18
2018-04-30T04:49:56.172Z,8.50
2018-04-30T04:52:24.378Z,8.55
2018-04-30T04:54:52.566Z,9.57
2018-04-30T04:57:20.790Z,11.27
2018-04-30T04:59:49.292Z,9.63
2018-04-30T05:02:17.460Z,10.10
2018-04-30T05:04:45.767Z,9.57
2018-04-30T05:07:13.765Z,9.48
2018-04-30T05:09:42.149Z,10.50
2018-04-30T05:12:10.334Z,10.32
2018-04-30T05:14:38.530Z,9.60
2018-04-30T05:17:06.727Z,9.38
2018-04-30T05:19:34.928Z,9.90
2018-04-30T05:22:03.008Z,9.63
2018-04-30T05:24:31.206Z,9.55
2018-04-30T05:26:59.405Z,8.57
2018-04-30T05:29:27.593Z,8.98
2018-04-30T05:31:56.042Z,8.35
2018-04-30T05:34:24.392Z,7.15
2018-04-30T05:36:52.711Z,7.85
2018-04-30T05:39:21.192Z,7.93
2018-04-30T05:41:49.628Z,6.45
2018-04-30T05:44:18.088Z,4.45
2018-04-30T05:46:46.293Z,4.30
2018-04-30T05:49:14.481Z,4.22
2018-04-30T05:51:43.352Z,5.87
2018-04-30T05:54:12.298Z,3.05
2018-04-30T05:56:40.597Z,3.50
2018-04-30T05:59:09.420Z,7.12
2018-04-30T06:01:38.698Z,5.95
2018-04-30T06:04:07.011Z,7.00
2018-04-30T06:06:35.227Z,6.32
2018-04-30T06:09:03.617Z,5.75
2018-04-30T06:11:32.003Z,5.50
2018-04-30T06:14:00.330Z,5.95
2018-04-30T06:16:28.702Z,5.30
2018-04-30T06:18:56.912Z,5.78
2018-04-30T06:21:25.025Z,5.00
2018-04-30T06:23:53.297Z,5.40
2018-04-30T06:26:21.602Z,5.47
2018-04-30T06:28:50.070Z,5.65
2018-04-30T06:31:18.290Z,6.65
2018-04-30T06:33:46.787Z,6.47
2018-04-30T06:36:15.098Z,7.00
2018-04-30T06:38:43.583Z,6.93
2018-04-30T06:41:11.988Z,6.53
2018-04-30T06:43:40.372Z,6.40
2018-04-30T06:46:08.573Z,6.72
2018-04-30T06:48:36.656Z,7.10
2018-04-30T06:51:05.002Z,7.20
2018-04-30T06:53:33.506Z,6.50
2018-04-30T06:56:01.870Z,5.43
2018-04-30T06:58:30.163Z,6.00
2018-04-30T07:00:58.267Z,6.33
2018-04-30T07:03:26.453Z,7.50
2018-04-30T07:05:54.764Z,5.90
2018-04-30T07:08:23.260Z,5.67
2018-04-30T07:10:51.660Z,6.47
2018-04-30T07:13:20.037Z,6.33
2018-04-30T07:15:48.819Z,6.40
2018-04-30T07:18:17.154Z,6.07
2018-04-30T07:20:45.553Z,6.77
2018-04-30T07:23:14.005Z,6.20
2018-04-30T07:25:42.452Z,6.70
2018-04-30T07:28:10.874Z,6.33
2018-04-30T07:30:39.246Z,6.70
2018-04-30T07:33:07.586Z,6.90
2018-04-30T07:35:36.158Z,5.60
2018-04-30T07:38:04.561Z,5.50
2018-04-30T07:40:33.341Z,4.40
2018-04-30T07:43:01.672Z,4.57
2018-04-30T07:45:30.047Z,5.07
2018-04-30T07:47:58.408Z,3.67
2018-04-30T07:50:27.059Z,4.30
2018-04-30T07:52:55.459Z,3.80
2018-04-30T07:55:24.225Z,3.77
2018-04-30T07:57:52.560Z,3.67
2018-04-30T08:00:21.095Z,3.63
2018-04-30T08:02:49.476Z,3.40
2018-04-30T08:05:17.743Z,3.17
2018-04-30T08:07:46.014Z,4.10
2018-04-30T08:10:14.247Z,3.63
2018-04-30T08:12:42.528Z,3.93
2018-04-30T08:15:10.781Z,4.17
2018-04-30T08:17:39.094Z,4.97
2018-04-30T08:20:07.454Z,3.77
2018-04-30T08:22:35.926Z,7.17
2018-04-30T08:25:04.515Z,3.37
2018-04-30T08:27:32.742Z,2.67
2018-04-30T08:30:01.152Z,3.63
2018-04-30T08:32:29.436Z,3.60
2018-04-30T08:34:57.829Z,2.83
2018-04-30T08:37:26.230Z,3.30
2018-04-30T08:39:54.434Z,3.40
2018-04-30T08:42:23.008Z,4.10
2018-04-30T08:44:51.243Z,4.20
2018-04-30T08:47:19.719Z,4.27
2018-04-30T08:49:48.789Z,3.13
2018-04-30T08:52:17.057Z,3.70
2018-04-30T08:54:45.594Z,3.60
2018-04-30T08:57:14.467Z,4.23
2018-04-30T08:59:42.839Z,4.07
2018-04-30T09:02:11.037Z,4.40
2018-04-30T09:04:39.451Z,4.13
2018-04-30T09:07:07.741Z,4.27
2018-04-30T09:09:36.380Z,4.17
2018-04-30T09:12:04.734Z,4.13
2018-04-30T09:14:32.931Z,4.37
2018-04-30T09:17:01.235Z,3.57
2018-04-30T09:19:29.715Z,4.60
2018-04-30T09:21:58.317Z,5.03
2018-04-30T09:24:26.515Z,4.47
2018-04-30T09:26:54.770Z,4.00
2018-04-30T09:29:23.277Z,4.13
2018-04-30T09:31:52.597Z,4.60
2018-04-30T09:34:20.932Z,4.70
2018-04-30T09:36:49.338Z,4.23
2018-04-30T09:39:17.637Z,4.87
2018-04-30T09:41:46.009Z,4.50
2018-04-30T09:44:14.550Z,4.10
2018-04-30T09:46:42.828Z,4.90
2018-04-30T09:49:11.236Z,3.90
2018-04-30T09:51:40.037Z,4.20
2018-04-30T09:54:08.227Z,4.00
2018-04-30T09:56:36.511Z,4.87
2018-04-30T09:59:04.720Z,3.70
2018-04-30T10:01:32.913Z,3.57
2018-04-30T10:04:01.106Z,3.47
2018-04-30T10:06:29.406Z,3.53
2018-04-30T10:08:58.095Z,3.50
2018-04-30T10:11:26.524Z,4.60
2018-04-30T10:13:55.026Z,3.60
2018-04-30T10:16:23.719Z,3.23
2018-04-30T10:18:51.808Z,3.40
2018-04-30T10:21:20.209Z,2.73
2018-04-30T10:23:48.616Z,3.80
2018-04-30T10:26:16.893Z,2.83
2018-04-30T10:28:45.198Z,2.80
2018-04-30T10:31:13.394Z,2.80
2018-04-30T10:33:41.921Z,3.47
2018-04-30T10:36:10.613Z,3.20
2018-04-30T10:38:39.262Z,2.97
2018-04-30T10:41:07.487Z,2.50
2018-04-30T10:43:35.610Z,2.93
2018-04-30T10:46:04.092Z,2.50
2018-04-30T10:48:33.335Z,2.50
2018-04-30T10:51:01.599Z,2.33
2018-04-30T10:53:29.992Z,3.00
2018-04-30T10:55:58.461Z,2.47
2018-04-30T10:58:26.800Z,2.30
2018-04-30T11:00:55.100Z,2.73
2018-04-30T11:03:23.394Z,2.67
2018-04-30T11:05:51.681Z,2.73
2018-04-30T11:08:20.187Z,2.87
2018-04-30T11:10:48.808Z,2.60
2018-04-30T11:13:17.197Z,2.70
2018-04-30T11:15:46.201Z,2.43
2018-04-30T11:18:14.406Z,2.40
2018-04-30T11:20:42.815Z,3.03
2018-04-30T11:23:11.096Z,3.50
2018-04-30T11:25:39.394Z,2.73
2018-04-30T11:28:07.591Z,2.53
2018-04-30T11:30:35.881Z,2.63
2018-04-30T11:33:04.392Z,2.40
2018-04-30T11:35:32.772Z,2.67
2018-04-30T11:38:01.089Z,2.80
2018-04-30T11:40:29.377Z,2.60
2018-04-30T11:42:57.666Z,3.10
2018-04-30T11:45:25.976Z,3.10
2018-04-30T11:47:54.265Z,2.67
2018-04-30T11:50:22.667Z,2.20
2018-04-30T11:52:50.964Z,2.40
2018-04-30T11:55:19.086Z,2.77
2018-04-30T11:57:47.454Z,2.17
2018-04-30T12:00:15.554Z,2.10
2018-04-30T12:02:43.946Z,1.80
2018-04-30T12:05:12.157Z,2.50
2018-04-30T12:07:40.433Z,2.40
2018-04-30T12:10:08.774Z,2.60
2018-04-30T12:12:37.235Z,2.23
2018-04-30T12:15:05.444Z,2.77
2018-04-30T12:17:33.859Z,2.10
2018-04-30T12:20:02.118Z,2.23
2018-04-30T12:22:30.531Z,2.20
2018-04-30T12:24:58.720Z,2.23
2018-04-30T12:27:27.124Z,2.20
2018-04-30T12:29:55.219Z,2.33
2018-04-30T12:32:23.409Z,2.33
2018-04-30T12:34:51.636Z,2.23
2018-04-30T12:37:19.830Z,2.07
2018-04-30T12:39:49.127Z,2.20
2018-04-30T12:42:17.411Z,2.30
2018-04-30T12:44:45.695Z,2.13
2018-04-30T12:47:13.891Z,2.23
2018-04-30T12:49:42.211Z,2.13
2018-04-30T12:52:10.755Z,2.43
2018-04-30T12:54:38.920Z,2.33
2018-04-30T12:57:07.286Z,2.60
2018-04-30T12:59:36.525Z,2.17
2018-04-30T13:02:04.885Z,1.93
2018-04-30T13:04:33.737Z,2.60
2018-04-30T13:07:02.204Z,2.23
2018-04-30T13:09:30.517Z,2.03
2018-04-30T13:11:59.727Z,1.90
2018-04-30T13:14:28.045Z,1.80
2018-04-30T13:16:56.521Z,1.50
2018-04-30T13:19:24.719Z,2.00
2018-04-30T13:21:53.052Z,1.63
2018-04-30T13:24:21.210Z,1.90
2018-04-30T13:26:49.601Z,2.10
2018-04-30T13:29:17.914Z,1.77
2018-04-30T13:31:46.635Z,2.07
2018-04-30T13:34:14.908Z,2.07
2018-04-30T13:36:43.127Z,1.83
2018-04-30T13:39:11.400Z,2.30
2018-04-30T13:41:39.895Z,1.83
2018-04-30T13:44:07.990Z,1.60
2018-04-30T13:46:36.090Z,1.63
2018-04-30T13:49:04.400Z,1.93
2018-04-30T13:51:32.576Z,1.90
2018-04-30T13:54:01.394Z,2.43
2018-04-30T13:56:29.676Z,1.90
2018-04-30T13:58:57.874Z,2.10
2018-04-30T14:01:26.053Z,2.03
2018-04-30T14:03:54.264Z,2.63
2018-04-30T14:06:22.583Z,2.47
2018-04-30T14:08:50.967Z,1.80
2018-04-30T14:11:19.260Z,1.87
2018-04-30T14:13:47.461Z,1.63
2018-04-30T14:16:15.557Z,1.63
2018-04-30T14:18:43.869Z,1.57
2018-04-30T14:21:12.236Z,2.10
2018-04-30T14:23:40.633Z,1.77
2018-04-30T14:26:09.024Z,2.07
2018-04-30T14:28:37.866Z,1.60
2018-04-30T14:31:06.141Z,1.40
2018-04-30T14:33:34.543Z,1.40
2018-04-30T14:36:03.675Z,1.70
2018-04-30T14:38:32.142Z,1.63
2018-04-30T14:41:00.617Z,1.43
2018-04-30T14:43:29.063Z,1.47
2018-04-30T14:45:57.353Z,1.90
2018-04-30T14:48:25.751Z,1.73
2018-04-30T14:50:53.958Z,2.20
2018-04-30T14:53:22.237Z,1.50
2018-04-30T14:55:50.770Z,1.73
2018-04-30T14:58:19.141Z,1.63
2018-04-30T15:00:47.227Z,1.30
2018-04-30T15:03:15.889Z,4.20
2018-04-30T15:05:44.025Z,2.43
2018-04-30T15:08:12.237Z,1.77
2018-04-30T15:10:40.529Z,1.60
2018-04-30T15:13:08.821Z,2.73
2018-04-30T15:15:37.225Z,1.80
2018-04-30T15:18:05.568Z,2.07
2018-04-30T15:20:33.916Z,1.40
2018-04-30T15:23:02.218Z,1.77
2018-04-30T15:25:30.401Z,1.60
2018-04-30T15:27:58.617Z,1.27
2018-04-30T15:30:26.795Z,1.83
2018-04-30T15:32:55.710Z,1.70
2018-04-30T15:35:23.777Z,1.90
2018-04-30T15:37:52.008Z,1.57
2018-04-30T15:40:20.840Z,2.00
2018-04-30T15:42:49.175Z,2.07
2018-04-30T15:45:17.367Z,1.90
2018-04-30T15:47:45.486Z,1.87
2018-04-30T15:50:14.003Z,5.97
2018-04-30T15:52:42.311Z,1.77
2018-04-30T15:55:10.678Z,2.13
2018-04-30T15:57:38.774Z,2.07
2018-04-30T16:00:07.312Z,1.63
2018-04-30T16:02:35.875Z,1.57
2018-04-30T16:05:04.173Z,1.80
2018-04-30T16:07:32.578Z,2.17
2018-04-30T16:10:00.771Z,2.40
2018-04-30T16:12:28.962Z,1.53
2018-04-30T16:14:58.094Z,3.07
2018-04-30T16:17:26.264Z,2.00
2018-04-30T16:19:54.365Z,1.50
2018-04-30T16:22:22.626Z,2.10
2018-04-30T16:24:51.479Z,6.43
2018-04-30T16:27:19.582Z,2.57
2018-04-30T16:29:47.946Z,1.50
2018-04-30T16:32:16.516Z,1.90
2018-04-30T16:34:44.864Z,1.87
2018-04-30T16:37:13.053Z,1.60
2018-04-30T16:39:42.118Z,1.60
2018-04-30T16:42:10.275Z,1.60
2018-04-30T16:44:38.675Z,1.27
2018-04-30T16:47:07.163Z,1.63
2018-04-30T16:49:35.462Z,1.25
2018-04-30T16:52:03.644Z,1.30
2018-04-30T16:54:31.953Z,1.80
2018-04-30T16:57:00.489Z,1.60
2018-04-30T16:59:28.775Z,1.70
2018-04-30T17:01:57.052Z,1.67
2018-04-30T17:04:25.347Z,1.60
2018-04-30T17:06:53.736Z,1.45
2018-04-30T17:09:21.936Z,1.48
2018-04-30T17:11:50.237Z,1.67
2018-04-30T17:14:18.582Z,1.35
2018-04-30T17:16:46.884Z,1.80
2018-04-30T17:19:15.131Z,1.92
2018-04-30T17:21:43.610Z,1.70
2018-04-30T17:24:11.817Z,2.10
2018-04-30T17:26:40.110Z,1.60
2018-04-30T17:29:08.414Z,1.90
2018-04-30T17:31:36.607Z,2.83
2018-04-30T17:34:05.025Z,1.20
2018-04-30T17:36:33.258Z,1.30
2018-04-30T17:39:01.286Z,1.80
2018-04-30T17:41:29.487Z,1.70
2018-04-30T17:43:57.914Z,1.17
2018-04-30T17:46:26.298Z,1.73
2018-04-30T17:48:54.681Z,1.60
2018-04-30T17:51:22.997Z,1.55
2018-04-30T17:53:52.313Z,1.30
2018-04-30T17:56:20.697Z,1.70
2018-04-30T17:58:48.920Z,1.98
2018-04-30T18:01:17.353Z,1.25
2018-04-30T18:03:46.252Z,1.25
2018-04-30T18:06:15.222Z,1.80
2018-04-30T18:08:43.616Z,1.55
2018-04-30T18:11:12.219Z,3.08
2018-04-30T18:13:40.308Z,1.85
2018-04-30T18:16:08.623Z,1.65
2018-04-30T18:18:36.987Z,1.45
2018-04-30T18:21:05.190Z,1.45
2018-04-30T18:23:33.285Z,1.60
2018-04-30T18:26:01.473Z,1.70
2018-04-30T18:28:30.085Z,1.77
2018-04-30T18:30:58.364Z,1.50
2018-04-30T18:33:26.575Z,1.42
2018-04-30T18:35:54.670Z,1.60
2018-04-30T18:38:22.866Z,1.60
2018-04-30T18:40:50.943Z,1.60
2018-04-30T18:43:19.050Z,1.45
2018-04-30T18:45:47.455Z,1.77
2018-04-30T18:48:15.843Z,1.50
2018-04-30T18:50:44.142Z,1.55
2018-04-30T18:53:12.331Z,1.60
2018-04-30T18:55:40.422Z,1.70
2018-04-30T18:58:08.734Z,1.37
2018-04-30T19:00:37.072Z,1.58
2018-04-30T19:03:05.303Z,1.62
2018-04-30T19:05:33.501Z,1.92
2018-04-30T19:08:01.733Z,1.65
2018-04-30T19:10:30.142Z,1.52
2018-04-30T19:13:01.108Z,2.15
2018-04-30T19:15:29.668Z,1.77
2018-04-30T19:17:57.852Z,1.95
2018-04-30T19:20:26.151Z,2.55
2018-04-30T19:22:54.798Z,2.40
2018-04-30T19:25:24.310Z,2.12
2018-04-30T19:27:52.513Z,2.47
2018-04-30T19:30:20.688Z,2.10
2018-04-30T19:32:49.098Z,1.80
2018-04-30T19:35:18.358Z,2.40
2018-04-30T19:37:47.229Z,1.73
2018-04-30T19:40:17.131Z,2.60
2018-04-30T19:42:45.853Z,2.12
2018-04-30T19:45:14.148Z,2.60
2018-04-30T19:47:42.542Z,2.30
2018-04-30T19:50:10.855Z,2.33
2018-04-30T19:52:39.226Z,2.28
2018-04-30T19:55:08.066Z,2.00
2018-04-30T19:57:36.438Z,2.25
2018-04-30T20:00:04.629Z,2.30
2018-04-30T20:02:32.829Z,2.30
2018-04-30T20:05:01.029Z,3.15
2018-04-30T20:07:29.539Z,3.00
2018-04-30T20:09:58.248Z,2.78
2018-04-30T20:12:26.851Z,2.80
2018-04-30T20:14:56.799Z,2.47
2018-04-30T20:17:25.315Z,4.28
2018-04-30T20:19:53.715Z,4.20
2018-04-30T20:22:22.294Z,2.30
2018-04-30T20:24:50.941Z,3.30
2018-04-30T20:27:19.274Z,2.35
2018-04-30T20:29:47.581Z,2.40
2018-04-30T20:32:21.054Z,1.67
2018-04-30T20:34:50.201Z,2.28
2018-04-30T20:37:18.583Z,2.65
2018-04-30T20:42:21.115Z,2.03
2018-04-30T20:44:49.231Z,2.60
2018-04-30T20:47:17.754Z,1.80
2018-04-30T20:49:46.475Z,2.60
2018-04-30T20:52:14.932Z,2.33
2018-04-30T20:54:43.315Z,2.40
2018-04-30T20:57:12.276Z,2.47
2018-04-30T20:59:40.751Z,2.40
2018-04-30T21:02:09.296Z,2.50
2018-04-30T21:04:37.644Z,2.40
2018-04-30T21:07:06.162Z,2.90
2018-04-30T21:09:34.770Z,2.62
2018-04-30T21:12:03.267Z,2.67
2018-04-30T21:14:31.758Z,2.53
2018-04-30T21:17:00.766Z,2.47
2018-04-30T21:19:28.935Z,2.45
2018-04-30T21:21:57.254Z,2.47
2018-04-30T21:24:25.646Z,2.10
2018-04-30T21:26:53.954Z,2.80
2018-04-30T21:29:22.135Z,2.83
2018-04-30T21:31:58.675Z,2.70
2018-04-30T21:34:32.993Z,2.20
2018-04-30T21:37:01.244Z,2.65
2018-04-30T21:39:29.439Z,3.53
2018-04-30T21:41:57.747Z,4.03
2018-04-30T21:44:26.112Z,4.15
2018-04-30T21:46:54.311Z,4.95
2018-04-30T21:49:22.711Z,4.40
2018-04-30T21:51:50.921Z,3.37
2018-04-30T21:54:19.409Z,3.40
2018-04-30T21:56:47.815Z,2.75
2018-04-30T21:59:16.122Z,2.95
2018-04-30T22:01:44.422Z,2.17
2018-04-30T22:04:12.587Z,2.60
2018-04-30T22:06:40.804Z,2.65
2018-04-30T22:09:09.402Z,2.90
2018-04-30T22:11:37.696Z,2.35
2018-04-30T22:14:06.096Z,2.50
2018-04-30T22:16:34.231Z,3.20
2018-04-30T22:19:02.364Z,2.12
2018-04-30T22:21:30.682Z,3.03
2018-04-30T22:23:59.205Z,2.75
2018-04-30T22:26:27.471Z,2.37
2018-04-30T22:28:56.291Z,3.12
2018-04-30T22:31:24.582Z,3.15
2018-04-30T22:33:52.984Z,2.60
2018-04-30T22:36:21.445Z,2.97
2018-04-30T22:38:49.807Z,2.80
2018-04-30T22:41:18.395Z,3.00
2018-04-30T22:43:47.016Z,3.00
2018-04-30T22:46:15.494Z,2.40
2018-04-30T22:48:44.372Z,3.03
2018-04-30T22:51:12.608Z,3.15
2018-04-30T22:53:40.723Z,2.40
2018-04-30T22:56:09.299Z,2.53
2018-04-30T22:58:37.690Z,3.62
2018-04-30T23:01:06.530Z,2.45
2018-04-30T23:03:34.823Z,2.90
2018-04-30T23:06:03.340Z,2.55
2018-04-30T23:08:31.608Z,2.53
2018-04-30T23:11:00.124Z,2.35
2018-04-30T23:13:28.384Z,2.80
2018-04-30T23:15:56.600Z,2.65
2018-04-30T23:18:25.334Z,2.62
2018-04-30T23:20:53.908Z,2.10
2018-04-30T23:23:22.195Z,2.08
2018-04-30T23:25:50.603Z,3.83
2018-04-30T23:28:19.109Z,2.42
2018-04-30T23:30:47.954Z,1.90
2018-04-30T23:33:16.558Z,2.10
2018-04-30T23:35:45.016Z,2.08
2018-04-30T23:38:14.231Z,2.03
2018-04-30T23:40:42.733Z,2.00
2018-04-30T23:43:11.215Z,2.40
2018-04-30T23:45:39.426Z,2.35
2018-04-30T23:48:07.953Z,2.00
2018-04-30T23:50:36.331Z,2.10
2018-04-30T23:53:04.858Z,2.10
2018-04-30T23:55:33.215Z,1.90
2018-04-30T23:58:01.899Z,2.17
